Time;durP1;ratioP1;P1;durP2;ratioP2;P2;SDS_P1;SDS_P2;PMS_P1;PMS_P2;Temp;Humidity;BMP_temperature;BMP_pressure;BME280_temperature;BME280_humidity;BME280_pressure;Samples;Min_cycle;Max_cycle;Signal;HPM_P1;HPM_P2
2021/06/24 00:01:07;;;;;;;8.23;5.28;;;11.10;96.90;;;;;;5087848;27;20070;-72
2021/06/24 00:03:35;;;;;;;11.63;8.75;;;11.10;96.90;;;;;;5105747;27;20035;-72
2021/06/24 00:06:03;;;;;;;9.48;6.60;;;11.10;96.80;;;;;;5119931;27;20561;-72
2021/06/24 00:08:30;;;;;;;8.95;6.03;;;11.00;97.00;;;;;;5105250;27;20474;-72
2021/06/24 00:10:58;;;;;;;8.68;6.50;;;11.00;97.20;;;;;;5081050;27;20039;-72
2021/06/24 00:13:25;;;;;;;8.57;5.57;;;10.90;97.60;;;;;;5101458;27;20031;-72
2021/06/24 00:15:52;;;;;;;7.70;5.90;;;10.90;97.50;;;;;;5121491;27;20038;-72
2021/06/24 00:18:19;;;;;;;7.80;5.05;;;10.80;97.60;;;;;;5121487;27;20137;-72
2021/06/24 00:20:46;;;;;;;7.65;5.28;;;10.80;97.70;;;;;;5117453;27;20092;-72
2021/06/24 00:23:12;;;;;;;8.45;6.18;;;10.80;97.90;;;;;;5106650;27;20035;-72
2021/06/24 00:25:39;;;;;;;7.05;5.68;;;10.70;97.70;;;;;;5071822;27;20130;-72
2021/06/24 00:28:05;;;;;;;11.80;6.93;;;10.70;97.50;;;;;;5103508;27;20050;-71
2021/06/24 00:30:34;;;;;;;11.48;7.47;;;10.70;97.50;;;;;;5125430;27;20038;-71
2021/06/24 00:33:01;;;;;;;9.20;7.57;;;10.70;97.50;;;;;;5102213;27;20126;-72
2021/06/24 00:35:27;;;;;;;9.15;8.00;;;10.60;97.50;;;;;;5123429;27;20046;-72
2021/06/24 00:37:55;;;;;;;9.98;7.72;;;10.50;97.60;;;;;;5123792;27;20042;-71
2021/06/24 00:40:24;;;;;;;11.05;8.30;;;10.50;97.60;;;;;;5125152;27;20088;-71
2021/06/24 00:42:51;;;;;;;10.73;9.27;;;10.40;97.60;;;;;;5107925;27;20031;-72
2021/06/24 00:45:17;;;;;;;8.35;7.40;;;10.30;97.70;;;;;;5124045;27;20269;-72
2021/06/24 00:47:43;;;;;;;8.27;7.45;;;10.30;97.90;;;;;;5124942;27;20028;-74
2021/06/24 00:50:11;;;;;;;8.52;7.45;;;10.30;98.20;;;;;;5087658;27;20511;-75
2021/06/24 00:52:37;;;;;;;10.35;9.18;;;10.30;98.20;;;;;;5102165;27;20043;-73
2021/06/24 00:55:05;;;;;;;13.98;10.65;;;10.30;97.80;;;;;;5104860;27;20043;-74
2021/06/24 00:57:32;;;;;;;9.95;8.35;;;10.30;97.90;;;;;;5123996;27;20088;-74
2021/06/24 00:59:58;;;;;;;8.02;7.20;;;10.20;97.90;;;;;;5088810;27;20058;-74
2021/06/24 01:02:25;;;;;;;11.35;9.20;;;10.10;97.90;;;;;;5068815;28;20832;-74
2021/06/24 01:04:51;;;;;;;9.68;8.13;;;10.10;98.20;;;;;;5036793;28;21341;-74
2021/06/24 01:07:17;;;;;;;9.50;8.10;;;10.10;98.30;;;;;;5075346;28;20036;-74
2021/06/24 01:09:43;;;;;;;7.53;5.72;;;10.10;98.40;;;;;;5064754;28;21310;-74
2021/06/24 01:12:10;;;;;;;10.65;5.50;;;10.10;98.20;;;;;;5066226;28;20060;-74
2021/06/24 01:14:37;;;;;;;9.27;7.85;;;10.00;98.30;;;;;;5091812;28;20082;-74
2021/06/24 01:17:03;;;;;;;13.57;9.75;;;10.00;98.30;;;;;;5077980;28;20051;-74
2021/06/24 01:19:29;;;;;;;9.45;7.35;;;10.00;98.30;;;;;;5088722;28;20039;-74
2021/06/24 01:21:56;;;;;;;9.02;7.00;;;10.00;98.50;;;;;;5080782;28;20156;-73
2021/06/24 01:24:23;;;;;;;11.80;7.68;;;9.90;98.40;;;;;;5081024;28;20148;-73
2021/06/24 01:26:49;;;;;;;6.65;5.75;;;9.90;98.60;;;;;;5085475;28;20161;-74
2021/06/24 01:29:15;;;;;;;7.10;6.25;;;10.00;98.70;;;;;;5074614;28;20117;-74
2021/06/24 01:31:41;;;;;;;8.75;6.32;;;10.00;98.70;;;;;;5084227;28;20035;-74
2021/06/24 01:34:10;;;;;;;7.63;5.78;;;9.90;98.70;;;;;;5078520;28;20048;-74
2021/06/24 01:36:36;;;;;;;7.32;5.60;;;10.00;98.80;;;;;;5086106;28;20131;-74
2021/06/24 01:39:10;;;;;;;8.32;5.78;;;9.90;98.60;;;;;;5086963;28;20055;-73
2021/06/24 01:41:36;;;;;;;7.03;5.22;;;9.90;98.70;;;;;;5088731;28;20038;-74
2021/06/24 01:44:02;;;;;;;8.20;6.28;;;9.90;98.80;;;;;;5084592;28;20123;-74
2021/06/24 01:46:28;;;;;;;6.05;5.25;;;9.90;98.90;;;;;;5065792;28;20386;-74
2021/06/24 01:48:54;;;;;;;8.48;6.93;;;9.80;98.70;;;;;;5077833;28;20039;-74
2021/06/24 01:51:22;;;;;;;8.18;6.43;;;9.80;98.60;;;;;;5061554;28;20039;-74
2021/06/24 01:53:49;;;;;;;10.85;7.55;;;9.70;98.80;;;;;;5078541;28;20048;-74
2021/06/24 01:56:15;;;;;;;10.90;6.43;;;9.70;98.90;;;;;;5075082;28;20092;-73
2021/06/24 01:58:42;;;;;;;7.55;5.13;;;9.60;98.50;;;;;;5074525;28;20390;-74
2021/06/24 02:01:08;;;;;;;10.98;7.38;;;9.60;98.70;;;;;;5090050;27;20063;-73
2021/06/24 02:03:37;;;;;;;9.75;7.80;;;9.70;99.00;;;;;;5118633;27;20414;-73
2021/06/24 02:06:04;;;;;;;9.57;6.45;;;9.70;99.10;;;;;;5118682;27;20066;-73
2021/06/24 02:08:35;;;;;;;9.52;8.45;;;9.80;99.00;;;;;;5101355;27;20050;-73
2021/06/24 02:11:02;;;;;;;14.60;8.98;;;9.80;98.90;;;;;;5083912;28;20626;-74
2021/06/24 02:13:31;;;;;;;13.80;9.70;;;9.80;98.90;;;;;;5122971;27;20516;-71
2021/06/24 02:16:00;;;;;;;10.48;8.77;;;9.80;98.90;;;;;;5100194;27;20572;-71
2021/06/24 02:18:26;;;;;;;10.10;8.65;;;9.70;99.00;;;;;;5102176;27;20035;-71
2021/06/24 02:20:52;;;;;;;14.70;9.63;;;9.70;99.00;;;;;;5087620;27;20091;-71
2021/06/24 02:23:18;;;;;;;11.95;9.70;;;9.80;99.10;;;;;;5118390;27;20038;-71
2021/06/24 02:25:44;;;;;;;8.52;7.45;;;9.70;99.10;;;;;;5103503;27;20038;-71
2021/06/24 02:28:10;;;;;;;13.75;9.55;;;9.90;99.20;;;;;;5103490;27;20122;-71
2021/06/24 02:30:39;;;;;;;15.60;10.90;;;9.80;99.20;;;;;;5087949;27;20149;-71
2021/06/24 02:33:07;;;;;;;9.17;7.27;;;9.80;99.20;;;;;;5120624;27;20035;-71
2021/06/24 02:35:35;;;;;;;11.02;7.53;;;9.80;99.20;;;;;;5105855;27;20063;-71
2021/06/24 02:38:02;;;;;;;14.55;12.55;;;9.80;99.20;;;;;;5088096;28;20265;-71
2021/06/24 02:40:28;;;;;;;19.45;14.48;;;9.90;99.20;;;;;;5100195;28;20072;-73
2021/06/24 02:42:54;;;;;;;18.55;12.75;;;9.90;99.20;;;;;;5101269;28;20045;-73
2021/06/24 02:45:20;;;;;;;11.65;9.60;;;9.90;99.40;;;;;;5116300;27;20042;-73
2021/06/24 02:47:45;;;;;;;13.98;11.38;;;9.90;99.50;;;;;;5083161;28;20043;-73
2021/06/24 02:50:12;;;;;;;14.20;11.68;;;10.00;99.70;;;;;;5064814;28;20042;-74
2021/06/24 02:52:38;;;;;;;14.07;12.23;;;10.10;99.40;;;;;;5119437;27;20538;-73
2021/06/24 02:55:06;;;;;;;14.95;13.25;;;10.10;99.50;;;;;;5098131;28;20043;-73
2021/06/24 02:57:33;;;;;;;16.38;11.10;;;10.20;99.90;;;;;;5101037;28;20488;-73
2021/06/24 02:59:59;;;;;;;15.70;11.65;;;10.20;99.50;;;;;;5093178;27;20038;-74
2021/06/24 03:02:25;;;;;;;15.90;12.90;;;10.20;99.50;;;;;;5099406;28;20043;-73
2021/06/24 03:04:52;;;;;;;17.33;13.90;;;10.20;99.60;;;;;;5103489;28;20077;-73
2021/06/24 03:07:18;;;;;;;16.67;12.40;;;10.30;99.50;;;;;;5101838;28;20174;-73
2021/06/24 03:09:44;;;;;;;14.00;12.50;;;10.20;99.50;;;;;;5101392;27;20055;-73
2021/06/24 03:12:10;;;;;;;17.45;15.52;;;10.30;99.90;;;;;;5079714;27;20473;-73
2021/06/24 03:14:36;;;;;;;19.65;14.27;;;10.30;99.70;;;;;;5118550;27;20043;-72
2021/06/24 03:17:02;;;;;;;18.92;14.57;;;10.30;99.70;;;;;;5119308;27;20100;-73
2021/06/24 03:19:28;;;;;;;15.18;12.35;;;10.30;99.90;;;;;;5079717;27;20070;-73
2021/06/24 03:21:54;;;;;;;14.70;13.15;;;10.30;99.90;;;;;;5099398;27;20413;-73
2021/06/24 03:24:20;;;;;;;17.33;14.02;;;10.40;99.90;;;;;;5080368;27;20046;-72
2021/06/24 03:26:45;;;;;;;16.38;13.63;;;10.40;99.90;;;;;;5064819;27;20113;-73
2021/06/24 03:29:11;;;;;;;18.08;13.85;;;10.40;99.90;;;;;;5083743;27;20092;-73
2021/06/24 03:31:37;;;;;;;18.02;14.25;;;10.40;99.90;;;;;;5117641;27;20538;-73
2021/06/24 03:34:03;;;;;;;20.30;14.77;;;10.40;99.90;;;;;;5066939;27;20071;-73
2021/06/24 03:36:30;;;;;;;16.73;14.55;;;10.40;99.90;;;;;;5118174;27;20099;-73
2021/06/24 03:38:56;;;;;;;20.38;14.85;;;10.40;99.90;;;;;;5116971;27;20055;-73
2021/06/24 03:41:25;;;;;;;18.67;16.08;;;10.40;99.90;;;;;;5095386;27;20039;-71
2021/06/24 03:43:53;;;;;;;21.98;16.17;;;10.50;99.90;;;;;;5098272;27;20426;-71
2021/06/24 03:46:21;;;;;;;19.00;16.63;;;10.50;99.90;;;;;;5098968;27;20054;-71
2021/06/24 03:48:48;;;;;;;17.60;15.48;;;10.50;99.90;;;;;;5116346;27;20054;-71
2021/06/24 03:51:14;;;;;;;17.00;15.18;;;10.50;99.90;;;;;;5117014;27;20043;-72
2021/06/24 03:53:40;;;;;;;19.35;15.70;;;10.50;99.90;;;;;;5066583;27;20051;-73
2021/06/24 03:56:07;;;;;;;15.50;13.55;;;10.50;99.90;;;;;;5084279;27;20039;-73
2021/06/24 03:58:33;;;;;;;17.80;15.27;;;10.50;99.90;;;;;;5084298;27;20126;-73
2021/06/24 04:00:59;;;;;;;21.20;15.85;;;10.40;99.90;;;;;;5081365;27;20047;-73
2021/06/24 04:03:25;;;;;;;18.48;16.20;;;10.40;99.90;;;;;;5083568;27;20043;-71
2021/06/24 04:05:51;;;;;;;19.67;15.73;;;10.40;99.90;;;;;;5100792;27;20494;-73
2021/06/24 04:08:17;;;;;;;21.35;17.60;;;10.40;99.90;;;;;;5121541;27;20054;-73
2021/06/24 04:10:43;;;;;;;16.88;15.05;;;10.40;99.90;;;;;;5068764;27;20558;-73
2021/06/24 04:13:12;;;;;;;19.05;15.18;;;10.40;99.90;;;;;;5070043;27;20032;-73
2021/06/24 04:15:38;;;;;;;15.65;14.02;;;10.40;99.90;;;;;;5097732;27;20110;-73
2021/06/24 04:18:06;;;;;;;17.38;13.23;;;10.40;99.90;;;;;;5101408;27;20043;-72
2021/06/24 04:20:35;;;;;;;15.88;13.80;;;10.40;99.90;;;;;;5113406;27;20065;-72
2021/06/24 04:23:02;;;;;;;20.92;16.20;;;10.50;99.90;;;;;;5100492;27;20031;-73
2021/06/24 04:25:28;;;;;;;21.73;15.82;;;10.50;99.90;;;;;;5118123;27;20089;-73
2021/06/24 04:27:55;;;;;;;15.68;12.25;;;10.50;99.90;;;;;;5117083;27;20509;-72
2021/06/24 04:30:21;;;;;;;13.40;12.07;;;10.60;99.90;;;;;;5097718;27;20485;-72
2021/06/24 04:32:49;;;;;;;15.57;11.90;;;10.60;99.90;;;;;;5101274;27;20051;-72
2021/06/24 04:35:15;;;;;;;13.27;11.95;;;10.70;99.90;;;;;;5116041;27;20047;-73
2021/06/24 04:37:42;;;;;;;15.50;13.23;;;10.80;99.90;;;;;;5099801;27;20041;-72
2021/06/24 04:40:10;;;;;;;13.82;12.40;;;10.80;99.90;;;;;;5082343;27;20051;-72
2021/06/24 04:42:36;;;;;;;14.70;12.93;;;10.90;99.90;;;;;;5117379;27;20096;-72
2021/06/24 04:45:04;;;;;;;17.52;13.93;;;11.00;99.90;;;;;;5098509;27;20031;-72
2021/06/24 04:47:30;;;;;;;13.43;11.07;;;11.00;99.90;;;;;;5099887;27;20073;-74
2021/06/24 04:49:56;;;;;;;14.50;13.00;;;11.00;99.90;;;;;;5080748;27;20035;-73
2021/06/24 04:52:21;;;;;;;15.93;14.10;;;11.10;99.90;;;;;;5098038;27;20409;-73
2021/06/24 04:54:47;;;;;;;18.75;15.23;;;11.10;99.90;;;;;;5099493;27;20043;-73
2021/06/24 04:57:14;;;;;;;16.75;14.95;;;11.20;99.90;;;;;;5116555;27;20039;-74
2021/06/24 04:59:39;;;;;;;16.92;15.20;;;11.30;99.90;;;;;;5116756;27;20490;-73
2021/06/24 05:02:05;;;;;;;15.85;14.25;;;11.40;99.80;;;;;;5115013;27;20062;-74
2021/06/24 05:04:31;;;;;;;18.05;13.95;;;11.50;99.70;;;;;;5093421;27;20119;-74
2021/06/24 05:07:03;;;;;;;16.80;13.05;;;11.50;99.70;;;;;;5098538;27;20394;-74
2021/06/24 05:09:32;;;;;;;15.55;13.43;;;11.60;99.70;;;;;;5066576;27;20035;-74
2021/06/24 05:11:58;;;;;;;14.85;12.77;;;11.70;99.50;;;;;;5095440;27;20047;-74
2021/06/24 05:14:24;;;;;;;13.57;12.18;;;11.80;99.20;;;;;;5097110;27;20042;-74
2021/06/24 05:16:51;;;;;;;14.13;11.32;;;11.90;99.10;;;;;;5078257;27;20873;-74
2021/06/24 05:19:17;;;;;;;13.02;11.10;;;12.00;99.10;;;;;;5079592;27;20466;-74
2021/06/24 05:21:42;;;;;;;12.75;11.55;;;12.00;99.00;;;;;;5097076;27;20047;-74
2021/06/24 05:24:09;;;;;;;11.50;10.30;;;12.10;99.00;;;;;;5077028;27;20112;-74
2021/06/24 05:26:36;;;;;;;13.57;11.98;;;12.10;98.80;;;;;;5114555;27;20065;-74
2021/06/24 05:29:02;;;;;;;13.05;11.75;;;12.20;98.90;;;;;;5110189;27;20050;-74
2021/06/24 05:31:31;;;;;;;12.68;9.90;;;12.30;98.90;;;;;;5109361;27;20031;-74
2021/06/24 05:34:00;;;;;;;10.65;9.63;;;12.40;98.80;;;;;;5089603;27;20103;-73
2021/06/24 05:36:26;;;;;;;12.73;10.88;;;12.50;98.60;;;;;;5096790;27;20043;-73
2021/06/24 05:38:54;;;;;;;12.15;10.45;;;12.50;98.50;;;;;;5080708;27;20050;-73
2021/06/24 05:41:19;;;;;;;13.70;9.95;;;12.60;98.60;;;;;;5093839;27;20071;-73
2021/06/24 05:43:45;;;;;;;12.80;9.93;;;12.70;98.50;;;;;;5113475;27;20074;-72
2021/06/24 05:46:11;;;;;;;13.20;9.13;;;12.80;98.40;;;;;;5096910;27;20042;-73
2021/06/24 05:48:37;;;;;;;12.15;9.75;;;12.90;98.30;;;;;;5082961;27;20499;-72
2021/06/24 05:51:03;;;;;;;11.30;10.10;;;13.00;98.10;;;;;;5087294;27;20082;-72
2021/06/24 05:53:29;;;;;;;12.10;9.43;;;13.10;98.10;;;;;;5086964;27;20035;-73
2021/06/24 05:55:55;;;;;;;10.70;9.20;;;13.10;98.00;;;;;;5094187;27;20425;-72
2021/06/24 05:58:23;;;;;;;12.90;8.80;;;13.20;98.00;;;;;;5101040;27;20046;-72
2021/06/24 06:00:51;;;;;;;11.50;8.90;;;13.20;97.80;;;;;;5123934;27;20138;-72
2021/06/24 06:03:19;;;;;;;9.10;8.07;;;13.20;97.60;;;;;;5089636;28;20393;-72
2021/06/24 06:05:45;;;;;;;10.13;9.13;;;13.20;97.60;;;;;;5114954;27;20039;-72
2021/06/24 06:08:14;;;;;;;11.50;9.45;;;13.20;97.60;;;;;;5116155;27;20055;-72
2021/06/24 06:10:40;;;;;;;10.45;9.45;;;13.30;97.50;;;;;;5116766;27;20036;-74
2021/06/24 06:13:08;;;;;;;8.82;7.90;;;13.40;97.40;;;;;;5082204;27;20069;-74
2021/06/24 06:15:35;;;;;;;9.30;8.35;;;13.50;97.30;;;;;;5099542;27;20027;-74
2021/06/24 06:18:01;;;;;;;10.55;6.68;;;13.50;97.20;;;;;;5111550;27;20394;-74
2021/06/24 06:20:30;;;;;;;10.65;7.38;;;13.60;97.20;;;;;;5080052;28;20051;-73
2021/06/24 06:22:56;;;;;;;8.13;7.20;;;13.60;96.90;;;;;;5096151;27;20043;-74
2021/06/24 06:25:22;;;;;;;12.02;7.70;;;13.70;96.80;;;;;;5114998;27;20031;-74
2021/06/24 06:27:48;;;;;;;7.50;6.53;;;13.80;96.70;;;;;;5089904;28;20541;-74
2021/06/24 06:30:14;;;;;;;8.13;6.78;;;13.90;96.30;;;;;;5097483;27;20031;-74
2021/06/24 06:32:40;;;;;;;10.85;6.88;;;13.90;96.30;;;;;;5100987;27;20040;-74
2021/06/24 06:35:06;;;;;;;8.70;6.28;;;13.90;96.20;;;;;;5089274;28;20051;-74
2021/06/24 06:37:35;;;;;;;8.95;7.15;;;13.80;95.90;;;;;;5101413;27;20043;-74
2021/06/24 06:40:01;;;;;;;11.05;7.45;;;13.90;96.00;;;;;;5100221;28;20139;-76
2021/06/24 06:42:27;;;;;;;11.13;6.93;;;13.90;95.90;;;;;;5087176;28;20485;-74
2021/06/24 06:44:53;;;;;;;11.50;6.70;;;13.90;96.10;;;;;;5097985;27;20049;-74
2021/06/24 06:47:19;;;;;;;8.98;6.03;;;14.00;96.10;;;;;;5087919;27;20402;-74
2021/06/24 06:49:45;;;;;;;10.80;6.07;;;14.00;96.00;;;;;;5116024;27;20048;-74
2021/06/24 06:52:11;;;;;;;6.72;4.80;;;14.10;95.60;;;;;;5098779;27;20043;-74
2021/06/24 06:54:37;;;;;;;9.05;5.28;;;14.10;95.60;;;;;;5084945;27;20402;-74
2021/06/24 06:57:03;;;;;;;7.60;4.85;;;14.30;95.50;;;;;;5112480;27;20126;-73
2021/06/24 06:59:30;;;;;;;6.53;4.95;;;14.40;95.30;;;;;;5106823;27;20032;-74
2021/06/24 07:01:56;;;;;;;6.70;5.43;;;14.60;95.00;;;;;;5121953;27;20067;-74
2021/06/24 07:04:22;;;;;;;10.75;5.18;;;14.70;94.70;;;;;;5121344;27;20046;-74
2021/06/24 07:06:49;;;;;;;7.10;5.70;;;14.70;94.30;;;;;;5118851;27;20051;-76
2021/06/24 07:09:15;;;;;;;7.72;4.82;;;14.70;94.10;;;;;;5099586;27;20039;-74
2021/06/24 07:11:41;;;;;;;6.57;5.05;;;14.70;94.40;;;;;;5098649;27;20081;-75
2021/06/24 07:14:07;;;;;;;6.30;4.70;;;14.90;93.90;;;;;;5106601;27;20049;-74
2021/06/24 07:16:33;;;;;;;8.82;4.68;;;15.00;93.30;;;;;;5125063;27;20046;-74
2021/06/24 07:18:58;;;;;;;8.02;5.22;;;15.00;92.80;;;;;;5110723;27;20031;-74
2021/06/24 07:21:24;;;;;;;7.90;4.88;;;15.10;92.90;;;;;;5107341;27;20043;-75
2021/06/24 07:23:50;;;;;;;6.53;4.80;;;15.10;92.90;;;;;;5104105;27;20039;-74
2021/06/24 07:26:16;;;;;;;8.63;5.05;;;15.10;92.60;;;;;;5103054;27;20529;-74
2021/06/24 07:28:43;;;;;;;6.25;4.70;;;15.10;92.60;;;;;;5114262;27;20482;-75
2021/06/24 07:31:09;;;;;;;7.20;4.80;;;15.10;92.90;;;;;;5089866;27;20062;-76
2021/06/24 07:33:35;;;;;;;9.00;5.82;;;15.20;92.80;;;;;;5064409;28;20482;-74
2021/06/24 07:36:02;;;;;;;6.85;5.38;;;15.30;92.40;;;;;;5105306;27;20649;-74
2021/06/24 07:38:28;;;;;;;7.63;5.72;;;15.30;91.80;;;;;;5085241;27;20035;-75
2021/06/24 07:40:55;;;;;;;7.15;4.88;;;15.40;91.80;;;;;;5103131;27;20066;-77
2021/06/24 07:43:21;;;;;;;9.15;5.05;;;15.40;91.80;;;;;;5106875;27;20035;-75
2021/06/24 07:45:47;;;;;;;8.60;5.40;;;15.40;91.70;;;;;;5109350;28;20612;-74
2021/06/24 07:48:13;;;;;;;6.47;5.60;;;15.50;91.50;;;;;;5107217;27;20398;-75
2021/06/24 07:50:39;;;;;;;7.25;5.10;;;15.60;91.00;;;;;;5089692;27;20079;-75
2021/06/24 07:53:06;;;;;;;6.10;5.28;;;15.60;90.90;;;;;;5094373;27;20274;-76
2021/06/24 07:55:35;;;;;;;12.07;5.85;;;15.60;90.90;;;;;;5101666;27;20771;-75
2021/06/24 07:58:17;;;;;;;7.30;4.43;;;15.60;89.90;;;;;;5111951;27;20392;-74
2021/06/24 08:00:43;;;;;;;7.78;4.93;;;15.50;90.70;;;;;;5081740;28;20089;-74
2021/06/24 08:03:09;;;;;;;6.63;5.57;;;15.50;91.00;;;;;;5098776;28;20355;-73
2021/06/24 08:05:38;;;;;;;10.23;5.70;;;15.60;91.30;;;;;;5099795;28;20379;-75
2021/06/24 08:08:04;;;;;;;9.65;5.97;;;15.60;91.30;;;;;;5081529;28;20135;-76
2021/06/24 08:10:30;;;;;;;8.30;5.75;;;15.70;90.40;;;;;;5094725;28;20044;-76
2021/06/24 08:12:55;;;;;;;7.55;4.90;;;15.70;90.60;;;;;;5095423;28;20040;-77
2021/06/24 08:15:23;;;;;;;7.30;5.03;;;15.70;89.50;;;;;;5100857;28;20035;-76
2021/06/24 08:17:49;;;;;;;7.28;5.25;;;15.70;88.50;;;;;;5112358;28;20429;-75
2021/06/24 08:20:16;;;;;;;8.07;4.90;;;15.70;89.60;;;;;;5100271;28;20606;-77
2021/06/24 08:22:42;;;;;;;6.03;5.38;;;15.70;89.60;;;;;;5098420;28;20028;-77
2021/06/24 08:25:09;;;;;;;7.93;5.00;;;15.70;89.40;;;;;;5096389;28;20083;-74
2021/06/24 08:27:36;;;;;;;8.55;4.90;;;15.80;88.10;;;;;;5097665;28;20040;-75
2021/06/24 08:30:04;;;;;;;7.78;4.72;;;15.60;88.60;;;;;;5098505;28;20119;-74
2021/06/24 08:32:30;;;;;;;7.45;4.90;;;15.60;88.50;;;;;;5100745;28;20795;-76
2021/06/24 08:34:56;;;;;;;8.80;4.63;;;15.70;89.00;;;;;;5100138;28;20071;-75
2021/06/24 08:37:22;;;;;;;9.63;4.55;;;15.70;89.10;;;;;;5097986;28;20036;-75
2021/06/24 08:39:48;;;;;;;5.93;4.38;;;15.70;89.10;;;;;;5100047;28;20043;-76
2021/06/24 08:42:16;;;;;;;6.32;4.60;;;15.90;90.00;;;;;;5099184;28;20040;-76
2021/06/24 08:44:44;;;;;;;7.40;4.65;;;16.00;89.50;;;;;;5102044;28;20032;-76
2021/06/24 08:47:13;;;;;;;5.13;4.25;;;16.20;87.20;;;;;;5094447;28;20043;-76
2021/06/24 08:49:41;;;;;;;6.63;4.50;;;16.30;86.80;;;;;;5099907;28;20479;-78
2021/06/24 08:52:09;;;;;;;5.90;3.97;;;16.40;87.00;;;;;;5096194;28;20069;-75
2021/06/24 08:54:35;;;;;;;8.30;3.90;;;16.40;85.70;;;;;;5103256;28;20044;-74
2021/06/24 08:57:01;;;;;;;6.40;4.63;;;16.40;85.60;;;;;;5094325;28;20335;-75
2021/06/24 08:59:30;;;;;;;5.68;3.70;;;16.40;86.80;;;;;;5084062;28;20374;-79
2021/06/24 09:01:58;;;;;;;5.53;3.20;;;16.50;88.60;;;;;;5094648;28;20101;-75
2021/06/24 09:04:32;;;;;;;4.38;3.20;;;16.60;86.80;;;;;;5080200;28;20534;-76
2021/06/24 09:07:22;;;;;;;5.90;3.40;;;16.60;87.20;;;;;;5097019;28;20093;-76
2021/06/24 09:09:53;;;;;;;7.00;3.88;;;16.70;86.30;;;;;;5086490;28;20298;-76
2021/06/24 09:12:20;;;;;;;5.15;3.55;;;16.70;83.20;;;;;;5079549;28;20040;-76
2021/06/24 09:14:48;;;;;;;5.88;3.40;;;16.70;85.00;;;;;;5083440;28;20032;-75
2021/06/24 09:17:40;;;;;;;5.45;2.65;;;16.70;85.70;;;;;;5081751;28;20052;-75
2021/06/24 09:20:26;;;;;;;7.13;3.67;;;16.70;86.70;;;;;;5083205;28;20071;-74
2021/06/24 09:23:16;;;;;;;5.75;3.80;;;16.70;85.30;;;;;;5075615;28;20040;-76
2021/06/24 09:26:04;;;;;;;;;;;16.70;87.00;;;;;;5085146;28;20040;-75
2021/06/24 09:28:49;;;;;;;5.60;3.08;;;16.80;87.20;;;;;;5082079;28;19926;-76
2021/06/24 09:31:28;;;;;;;4.20;3.00;;;16.80;87.40;;;;;;5081531;28;20060;-75
2021/06/24 09:33:55;;;;;;;5.50;3.20;;;16.80;86.60;;;;;;5082524;28;20040;-76
2021/06/24 09:36:36;;;;;;;5.55;3.10;;;16.80;86.70;;;;;;5082469;28;20162;-75
2021/06/24 09:39:06;;;;;;;5.07;3.00;;;16.80;86.80;;;;;;5083251;28;20044;-75
2021/06/24 09:41:32;;;;;;;5.43;3.05;;;16.80;87.20;;;;;;5083594;28;20504;-75
2021/06/24 09:43:57;;;;;;;4.78;3.38;;;16.80;86.40;;;;;;5068290;28;20270;-75
2021/06/24 09:46:25;;;;;;;4.32;3.45;;;16.70;85.80;;;;;;5084252;28;20109;-75
2021/06/24 09:48:59;;;;;;;5.40;3.05;;;16.80;85.30;;;;;;5066319;28;20062;-77
2021/06/24 09:51:27;;;;;;;4.53;2.80;;;17.00;86.20;;;;;;5079924;28;20040;-74
2021/06/24 09:54:03;;;;;;;5.28;3.08;;;17.40;85.70;;;;;;5082068;28;20063;-75
2021/06/24 09:56:34;;;;;;;5.35;3.78;;;17.50;82.60;;;;;;5083941;28;20052;-75
2021/06/24 09:59:05;;;;;;;7.05;3.75;;;17.40;82.50;;;;;;5083624;28;20036;-77
2021/06/24 10:01:43;;;;;;;5.55;3.10;;;17.40;82.10;;;;;;5083542;28;20036;-75
2021/06/24 10:04:21;;;;;;;5.63;3.50;;;17.30;82.30;;;;;;5082567;28;20685;-76
2021/06/24 10:06:53;;;;;;;3.97;3.10;;;17.30;84.00;;;;;;5081110;28;20039;-75
2021/06/24 10:09:19;;;;;;;4.97;3.60;;;17.30;84.20;;;;;;5085402;28;20058;-75
2021/06/24 10:11:47;;;;;;;7.00;3.80;;;17.50;83.90;;;;;;5083106;28;20537;-76
2021/06/24 10:14:15;;;;;;;7.22;3.20;;;17.90;84.20;;;;;;5063324;28;20441;-75
2021/06/24 10:16:50;;;;;;;5.10;3.20;;;18.30;84.40;;;;;;5083610;28;20040;-76
2021/06/24 10:19:17;;;;;;;3.75;2.53;;;18.50;80.50;;;;;;5083413;28;20036;-75
2021/06/24 10:21:49;;;;;;;3.55;2.80;;;18.40;79.70;;;;;;5080465;28;20063;-75
2021/06/24 10:24:19;;;;;;;4.95;2.67;;;18.30;79.40;;;;;;5097095;28;20808;-74
2021/06/24 10:26:51;;;;;;;5.45;2.58;;;18.10;79.60;;;;;;5086417;28;20058;-76
2021/06/24 10:29:22;;;;;;;3.65;2.95;;;18.00;80.60;;;;;;5076504;28;20360;-74
2021/06/24 10:31:51;;;;;;;4.45;2.65;;;18.00;79.20;;;;;;5079276;28;20075;-75
2021/06/24 10:34:19;;;;;;;2.92;2.38;;;17.80;79.40;;;;;;5058138;28;20660;-75
2021/06/24 10:37:11;;;;;;;5.13;2.75;;;17.70;80.80;;;;;;5076454;28;20044;-75
2021/06/24 10:39:38;;;;;;;5.28;3.17;;;17.70;82.00;;;;;;5078104;28;20075;-75
2021/06/24 10:42:15;;;;;;;5.13;2.50;;;17.80;81.60;;;;;;5071978;28;20044;-75
2021/06/24 10:44:55;;;;;;;5.50;2.95;;;17.70;82.20;;;;;;5069696;28;20120;-75
2021/06/24 10:47:40;;;;;;;5.63;3.17;;;17.70;82.30;;;;;;5085954;28;20046;-75
2021/06/24 10:50:31;;;;;;;6.03;3.85;;;17.70;81.60;;;;;;5073511;28;20040;-75
2021/06/24 10:53:18;;;;;;;4.72;3.63;;;17.60;81.40;;;;;;5072820;28;20052;-76
2021/06/24 10:55:47;;;;;;;6.20;3.42;;;17.60;81.30;;;;;;5074682;28;20036;-75
2021/06/24 10:58:13;;;;;;;4.65;3.60;;;17.60;82.50;;;;;;5068818;28;20558;-75
2021/06/24 11:00:47;;;;;;;4.95;3.47;;;17.70;82.70;;;;;;5077088;28;20059;-75
2021/06/24 11:03:18;;;;;;;4.43;2.90;;;17.90;82.60;;;;;;5073440;28;20048;-75
2021/06/24 11:05:49;;;;;;;4.20;3.60;;;18.00;82.30;;;;;;5071551;28;20130;-75
2021/06/24 11:08:16;;;;;;;4.40;3.25;;;18.20;80.60;;;;;;5087742;28;20031;-76
2021/06/24 11:10:57;;;;;;;4.95;3.40;;;18.10;80.40;;;;;;5071967;28;20760;-76
2021/06/24 11:13:42;;;;;;;5.90;3.03;;;18.10;80.30;;;;;;5073578;28;20871;-75
2021/06/24 11:16:20;;;;;;;3.85;2.92;;;18.20;81.50;;;;;;5098744;27;20404;-76
2021/06/24 11:18:56;;;;;;;4.78;2.90;;;18.40;80.80;;;;;;5086623;28;20046;-76
2021/06/24 11:21:28;;;;;;;4.40;3.03;;;18.40;79.50;;;;;;5079792;28;20071;-76
2021/06/24 11:24:21;;;;;;;5.20;3.45;;;18.40;79.20;;;;;;5082781;28;20040;-75
2021/06/24 11:26:49;;;;;;;4.75;3.30;;;18.40;79.40;;;;;;5081704;28;20055;-75
2021/06/24 11:29:37;;;;;;;4.40;3.72;;;18.40;81.20;;;;;;5097422;28;20154;-75
2021/06/24 11:32:13;;;;;;;4.82;3.33;;;18.50;81.40;;;;;;5080058;28;20040;-75
2021/06/24 11:34:58;;;;;;;3.75;2.58;;;18.40;80.00;;;;;;5081074;28;20040;-76
2021/06/24 11:37:31;;;;;;;6.70;3.42;;;18.40;81.70;;;;;;5076866;28;20489;-76
2021/06/24 11:40:03;;;;;;;4.95;3.45;;;18.60;81.90;;;;;;5080382;28;20497;-75
2021/06/24 11:42:36;;;;;;;6.30;3.70;;;18.80;80.60;;;;;;5074223;28;20044;-73
2021/06/24 11:45:04;;;;;;;4.57;3.15;;;18.80;78.00;;;;;;5082576;28;20475;-73
2021/06/24 11:47:33;;;;;;;5.43;3.90;;;18.60;77.30;;;;;;5072237;28;20072;-74
2021/06/24 12:03:21;;;;;;;4.15;3.00;;;19.00;77.40;;;;;;5084054;28;20133;-74
2021/06/24 12:05:56;;;;;;;3.95;3.10;;;18.90;79.70;;;;;;5070031;28;20480;-74
2021/06/24 12:08:30;;;;;;;4.63;3.10;;;18.80;79.50;;;;;;5083543;28;20115;-74
2021/06/24 12:11:05;;;;;;;6.10;3.80;;;18.90;79.10;;;;;;5080699;28;20111;-74
2021/06/24 12:13:35;;;;;;;4.15;3.17;;;18.80;76.10;;;;;;5083194;28;20089;-73
2021/06/24 12:16:05;;;;;;;4.10;2.88;;;18.80;78.90;;;;;;5082343;28;20051;-74
2021/06/24 12:18:36;;;;;;;5.35;3.22;;;18.60;79.60;;;;;;5081060;28;20032;-72
2021/06/24 12:21:13;;;;;;;7.03;3.80;;;18.70;78.20;;;;;;5076222;28;20527;-74
2021/06/24 12:23:42;;;;;;;5.60;3.50;;;18.70;78.80;;;;;;5081734;28;20032;-73
2021/06/24 12:26:10;;;;;;;6.63;4.25;;;18.80;80.90;;;;;;5072585;28;20040;-73
2021/06/24 12:28:36;;;;;;;5.78;4.20;;;18.80;78.90;;;;;;5083284;28;20036;-73
2021/06/24 12:31:03;;;;;;;5.57;3.85;;;18.80;79.10;;;;;;5093218;28;20044;-74
2021/06/24 12:33:29;;;;;;;5.82;4.53;;;18.90;79.90;;;;;;5080081;28;20051;-74
2021/06/24 12:35:56;;;;;;;7.13;4.25;;;18.90;78.10;;;;;;5095236;28;20064;-74
2021/06/24 12:38:31;;;;;;;4.55;4.03;;;19.00;77.60;;;;;;5083455;28;20613;-75
2021/06/24 12:41:08;;;;;;;6.13;4.18;;;19.00;78.60;;;;;;5077097;28;20043;-74
2021/06/24 12:43:34;;;;;;;4.53;3.92;;;19.10;79.40;;;;;;5085315;28;20036;-76
2021/06/24 12:46:01;;;;;;;5.28;3.70;;;19.30;78.40;;;;;;5086265;28;20046;-75
2021/06/24 12:48:38;;;;;;;5.28;3.92;;;19.30;77.10;;;;;;5080223;28;20036;-75
2021/06/24 12:51:24;;;;;;;6.70;3.28;;;19.30;75.80;;;;;;5081597;28;20116;-76
2021/06/24 12:53:53;;;;;;;6.00;4.03;;;19.20;75.00;;;;;;5100265;28;20033;-76
2021/06/24 12:56:24;;;;;;;5.50;4.40;;;19.20;76.20;;;;;;5082458;28;20040;-76
2021/06/24 12:58:51;;;;;;;5.18;4.00;;;19.00;76.80;;;;;;5084273;28;20402;-77
2021/06/24 13:01:19;;;;;;;4.88;3.40;;;19.00;78.50;;;;;;5086190;28;20115;-76